sensor_id;sensor_type;location;lat;lon;timestamp;P1;durP1;ratioP1;P2;durP2;ratioP2
62830;SDS011;48889;55.782;37.708;2022-07-12T00:01:55;2.05;;;1.80;;
62830;SDS011;48889;55.782;37.708;2022-07-12T00:04:21;7.10;;;1.50;;
62830;SDS011;48889;55.782;37.708;2022-07-12T00:06:46;3.88;;;2.00;;
62830;SDS011;48889;55.782;37.708;2022-07-12T00:09:12;2.50;;;1.77;;
62830;SDS011;48889;55.782;37.708;2022-07-12T00:11:38;1.98;;;1.70;;
62830;SDS011;48889;55.782;37.708;2022-07-12T00:14:04;6.35;;;1.80;;
62830;SDS011;48889;55.782;37.708;2022-07-12T00:16:30;3.00;;;1.95;;
62830;SDS011;48889;55.782;37.708;2022-07-12T00:18:56;6.07;;;1.85;;
62830;SDS011;48889;55.782;37.708;2022-07-12T00:21:22;4.68;;;1.77;;
62830;SDS011;48889;55.782;37.708;2022-07-12T00:23:47;7.75;;;2.22;;
62830;SDS011;48889;55.782;37.708;2022-07-12T00:26:13;3.42;;;1.83;;
62830;SDS011;48889;55.782;37.708;2022-07-12T00:28:38;5.30;;;2.15;;
62830;SDS011;48889;55.782;37.708;2022-07-12T00:31:04;1.83;;;1.70;;
62830;SDS011;48889;55.782;37.708;2022-07-12T00:33:30;2.00;;;1.80;;
62830;SDS011;48889;55.782;37.708;2022-07-12T00:35:56;5.40;;;2.10;;
62830;SDS011;48889;55.782;37.708;2022-07-12T00:38:21;3.35;;;1.83;;
62830;SDS011;48889;55.782;37.708;2022-07-12T00:40:47;5.05;;;1.90;;
62830;SDS011;48889;55.782;37.708;2022-07-12T00:43:13;2.38;;;2.00;;
62830;SDS011;48889;55.782;37.708;2022-07-12T00:45:39;3.17;;;2.05;;
62830;SDS011;48889;55.782;37.708;2022-07-12T00:48:05;3.20;;;2.10;;
62830;SDS011;48889;55.782;37.708;2022-07-12T00:50:31;4.53;;;1.85;;
62830;SDS011;48889;55.782;37.708;2022-07-12T00:52:57;4.00;;;2.17;;
62830;SDS011;48889;55.782;37.708;2022-07-12T00:55:23;3.20;;;2.17;;
62830;SDS011;48889;55.782;37.708;2022-07-12T00:57:50;2.83;;;2.17;;
62830;SDS011;48889;55.782;37.708;2022-07-12T01:00:17;4.05;;;1.85;;
62830;SDS011;48889;55.782;37.708;2022-07-12T01:02:45;2.10;;;2.00;;
62830;SDS011;48889;55.782;37.708;2022-07-12T01:05:12;3.78;;;2.15;;
62830;SDS011;48889;55.782;37.708;2022-07-12T01:07:38;6.68;;;2.58;;
62830;SDS011;48889;55.782;37.708;2022-07-12T01:10:05;3.70;;;2.58;;
62830;SDS011;48889;55.782;37.708;2022-07-12T01:12:31;3.10;;;2.17;;
62830;SDS011;48889;55.782;37.708;2022-07-12T01:14:57;2.63;;;2.13;;
62830;SDS011;48889;55.782;37.708;2022-07-12T01:17:25;4.32;;;2.47;;
62830;SDS011;48889;55.782;37.708;2022-07-12T01:19:52;3.28;;;2.47;;
62830;SDS011;48889;55.782;37.708;2022-07-12T01:22:20;4.82;;;3.05;;
62830;SDS011;48889;55.782;37.708;2022-07-12T01:24:50;4.05;;;2.75;;
62830;SDS011;48889;55.782;37.708;2022-07-12T01:27:16;4.35;;;2.50;;
62830;SDS011;48889;55.782;37.708;2022-07-12T01:29:42;4.40;;;2.83;;
62830;SDS011;48889;55.782;37.708;2022-07-12T01:32:08;3.72;;;2.80;;
62830;SDS011;48889;55.782;37.708;2022-07-12T01:34:58;3.67;;;2.80;;
62830;SDS011;48889;55.782;37.708;2022-07-12T01:37:25;6.57;;;2.55;;
62830;SDS011;48889;55.782;37.708;2022-07-12T01:39:55;3.42;;;2.72;;
62830;SDS011;48889;55.782;37.708;2022-07-12T01:42:21;3.58;;;2.45;;
62830;SDS011;48889;55.782;37.708;2022-07-12T01:44:49;4.55;;;2.58;;
62830;SDS011;48889;55.782;37.708;2022-07-12T01:47:17;3.05;;;2.70;;
62830;SDS011;48889;55.782;37.708;2022-07-12T01:49:43;2.78;;;2.53;;
62830;SDS011;48889;55.782;37.708;2022-07-12T01:52:09;3.40;;;2.47;;
62830;SDS011;48889;55.782;37.708;2022-07-12T01:54:35;3.88;;;2.50;;
62830;SDS011;48889;55.782;37.708;2022-07-12T01:57:04;5.55;;;2.70;;
62830;SDS011;48889;55.782;37.708;2022-07-12T01:59:31;8.70;;;2.97;;
62830;SDS011;48889;55.782;37.708;2022-07-12T02:01:57;4.75;;;2.92;;
62830;SDS011;48889;55.782;37.708;2022-07-12T02:04:23;3.03;;;2.72;;
62830;SDS011;48889;55.782;37.708;2022-07-12T02:06:49;4.57;;;2.63;;
62830;SDS011;48889;55.782;37.708;2022-07-12T02:09:15;3.60;;;3.30;;
62830;SDS011;48889;55.782;37.708;2022-07-12T02:11:43;5.03;;;2.80;;
62830;SDS011;48889;55.782;37.708;2022-07-12T02:14:09;4.75;;;2.80;;
62830;SDS011;48889;55.782;37.708;2022-07-12T02:16:39;8.45;;;3.30;;
62830;SDS011;48889;55.782;37.708;2022-07-12T02:19:06;4.55;;;3.00;;
62830;SDS011;48889;55.782;37.708;2022-07-12T02:21:32;5.07;;;3.20;;
62830;SDS011;48889;55.782;37.708;2022-07-12T02:23:58;7.47;;;3.88;;
62830;SDS011;48889;55.782;37.708;2022-07-12T02:26:25;7.45;;;2.97;;
62830;SDS011;48889;55.782;37.708;2022-07-12T02:28:50;8.10;;;3.30;;
62830;SDS011;48889;55.782;37.708;2022-07-12T02:31:16;5.50;;;3.15;;
62830;SDS011;48889;55.782;37.708;2022-07-12T02:33:42;4.50;;;3.08;;
62830;SDS011;48889;55.782;37.708;2022-07-12T02:36:08;7.78;;;3.10;;
62830;SDS011;48889;55.782;37.708;2022-07-12T02:38:33;6.47;;;2.78;;
62830;SDS011;48889;55.782;37.708;2022-07-12T02:40:59;4.93;;;2.97;;
62830;SDS011;48889;55.782;37.708;2022-07-12T02:43:28;6.40;;;3.40;;
62830;SDS011;48889;55.782;37.708;2022-07-12T02:46:01;5.45;;;3.20;;
62830;SDS011;48889;55.782;37.708;2022-07-12T02:48:29;7.68;;;2.90;;
62830;SDS011;48889;55.782;37.708;2022-07-12T02:50:55;7.82;;;3.33;;
62830;SDS011;48889;55.782;37.708;2022-07-12T02:53:20;3.35;;;2.95;;
62830;SDS011;48889;55.782;37.708;2022-07-12T02:55:46;4.80;;;2.65;;
62830;SDS011;48889;55.782;37.708;2022-07-12T02:58:12;5.93;;;2.63;;
62830;SDS011;48889;55.782;37.708;2022-07-12T03:00:38;5.68;;;2.90;;
62830;SDS011;48889;55.782;37.708;2022-07-12T03:03:04;6.40;;;2.97;;
62830;SDS011;48889;55.782;37.708;2022-07-12T03:05:33;5.32;;;3.00;;
62830;SDS011;48889;55.782;37.708;2022-07-12T03:07:59;7.32;;;3.20;;
62830;SDS011;48889;55.782;37.708;2022-07-12T03:10:25;4.30;;;2.63;;
62830;SDS011;48889;55.782;37.708;2022-07-12T03:12:50;6.05;;;3.15;;
62830;SDS011;48889;55.782;37.708;2022-07-12T03:15:16;7.15;;;2.88;;
62830;SDS011;48889;55.782;37.708;2022-07-12T03:17:42;4.53;;;3.15;;
62830;SDS011;48889;55.782;37.708;2022-07-12T03:20:07;12.23;;;3.40;;
62830;SDS011;48889;55.782;37.708;2022-07-12T03:22:37;4.35;;;3.15;;
62830;SDS011;48889;55.782;37.708;2022-07-12T03:25:03;6.80;;;3.25;;
62830;SDS011;48889;55.782;37.708;2022-07-12T03:27:29;7.70;;;3.50;;
62830;SDS011;48889;55.782;37.708;2022-07-12T03:29:56;13.20;;;3.65;;
62830;SDS011;48889;55.782;37.708;2022-07-12T03:32:22;7.75;;;3.33;;
62830;SDS011;48889;55.782;37.708;2022-07-12T03:34:48;6.88;;;3.38;;
62830;SDS011;48889;55.782;37.708;2022-07-12T03:37:14;5.90;;;3.45;;
62830;SDS011;48889;55.782;37.708;2022-07-12T03:39:39;7.57;;;3.28;;
62830;SDS011;48889;55.782;37.708;2022-07-12T03:42:05;5.90;;;3.60;;
62830;SDS011;48889;55.782;37.708;2022-07-12T03:44:30;4.18;;;3.72;;
62830;SDS011;48889;55.782;37.708;2022-07-12T03:46:56;4.63;;;3.08;;
62830;SDS011;48889;55.782;37.708;2022-07-12T03:49:23;5.95;;;3.03;;
62830;SDS011;48889;55.782;37.708;2022-07-12T03:51:49;8.10;;;3.10;;
62830;SDS011;48889;55.782;37.708;2022-07-12T03:54:14;6.13;;;3.50;;
62830;SDS011;48889;55.782;37.708;2022-07-12T03:56:40;8.65;;;3.33;;
62830;SDS011;48889;55.782;37.708;2022-07-12T03:59:24;5.85;;;3.90;;
62830;SDS011;48889;55.782;37.708;2022-07-12T04:01:49;6.47;;;3.58;;
62830;SDS011;48889;55.782;37.708;2022-07-12T04:04:15;6.90;;;3.80;;
62830;SDS011;48889;55.782;37.708;2022-07-12T04:06:41;5.00;;;3.40;;
62830;SDS011;48889;55.782;37.708;2022-07-12T04:09:06;8.15;;;3.70;;
62830;SDS011;48889;55.782;37.708;2022-07-12T04:11:32;11.02;;;3.67;;
62830;SDS011;48889;55.782;37.708;2022-07-12T04:14:00;8.98;;;3.83;;
62830;SDS011;48889;55.782;37.708;2022-07-12T04:16:25;6.70;;;4.22;;
62830;SDS011;48889;55.782;37.708;2022-07-12T04:18:51;7.13;;;3.60;;
62830;SDS011;48889;55.782;37.708;2022-07-12T04:21:17;10.32;;;3.80;;
62830;SDS011;48889;55.782;37.708;2022-07-12T04:23:43;9.18;;;3.85;;
62830;SDS011;48889;55.782;37.708;2022-07-12T04:26:08;12.73;;;4.13;;
62830;SDS011;48889;55.782;37.708;2022-07-12T04:28:34;8.30;;;3.90;;
62830;SDS011;48889;55.782;37.708;2022-07-12T04:31:00;6.25;;;3.40;;
62830;SDS011;48889;55.782;37.708;2022-07-12T04:33:26;8.02;;;3.60;;
62830;SDS011;48889;55.782;37.708;2022-07-12T04:35:51;7.25;;;3.20;;
62830;SDS011;48889;55.782;37.708;2022-07-12T04:38:18;7.18;;;3.53;;
62830;SDS011;48889;55.782;37.708;2022-07-12T04:40:44;7.47;;;3.65;;
62830;SDS011;48889;55.782;37.708;2022-07-12T04:43:09;14.52;;;4.13;;
62830;SDS011;48889;55.782;37.708;2022-07-12T04:45:35;9.90;;;3.50;;
62830;SDS011;48889;55.782;37.708;2022-07-12T04:48:00;8.00;;;3.10;;
62830;SDS011;48889;55.782;37.708;2022-07-12T04:50:26;22.20;;;3.95;;
62830;SDS011;48889;55.782;37.708;2022-07-12T04:52:52;8.55;;;3.42;;
62830;SDS011;48889;55.782;37.708;2022-07-12T04:55:17;8.07;;;3.38;;
62830;SDS011;48889;55.782;37.708;2022-07-12T04:57:43;12.43;;;3.38;;
62830;SDS011;48889;55.782;37.708;2022-07-12T05:00:09;5.13;;;2.90;;
62830;SDS011;48889;55.782;37.708;2022-07-12T05:02:35;12.82;;;3.22;;
62830;SDS011;48889;55.782;37.708;2022-07-12T05:05:00;7.70;;;3.63;;
62830;SDS011;48889;55.782;37.708;2022-07-12T05:07:28;8.45;;;3.38;;
62830;SDS011;48889;55.782;37.708;2022-07-12T05:09:54;13.57;;;3.30;;
62830;SDS011;48889;55.782;37.708;2022-07-12T05:12:19;5.43;;;3.47;;
62830;SDS011;48889;55.782;37.708;2022-07-12T05:14:47;10.48;;;3.40;;
62830;SDS011;48889;55.782;37.708;2022-07-12T05:17:12;9.13;;;3.67;;
62830;SDS011;48889;55.782;37.708;2022-07-12T05:19:38;10.65;;;3.65;;
62830;SDS011;48889;55.782;37.708;2022-07-12T05:22:03;4.95;;;3.08;;
62830;SDS011;48889;55.782;37.708;2022-07-12T05:24:29;7.38;;;3.70;;
62830;SDS011;48889;55.782;37.708;2022-07-12T05:26:55;8.55;;;3.60;;
62830;SDS011;48889;55.782;37.708;2022-07-12T05:29:21;6.93;;;3.40;;
62830;SDS011;48889;55.782;37.708;2022-07-12T05:31:46;12.40;;;3.78;;
62830;SDS011;48889;55.782;37.708;2022-07-12T05:34:13;12.80;;;3.72;;
62830;SDS011;48889;55.782;37.708;2022-07-12T05:36:39;16.63;;;3.70;;
62830;SDS011;48889;55.782;37.708;2022-07-12T05:39:05;10.85;;;3.55;;
62830;SDS011;48889;55.782;37.708;2022-07-12T05:41:30;11.07;;;3.58;;
62830;SDS011;48889;55.782;37.708;2022-07-12T05:43:56;10.30;;;3.92;;
62830;SDS011;48889;55.782;37.708;2022-07-12T05:46:22;12.30;;;3.47;;
62830;SDS011;48889;55.782;37.708;2022-07-12T05:48:47;11.23;;;3.75;;
62830;SDS011;48889;55.782;37.708;2022-07-12T05:51:13;10.15;;;4.03;;
62830;SDS011;48889;55.782;37.708;2022-07-12T05:53:57;15.15;;;3.80;;
62830;SDS011;48889;55.782;37.708;2022-07-12T05:56:23;9.48;;;3.92;;
62830;SDS011;48889;55.782;37.708;2022-07-12T05:58:50;6.63;;;3.30;;
62830;SDS011;48889;55.782;37.708;2022-07-12T06:01:17;9.20;;;3.92;;
62830;SDS011;48889;55.782;37.708;2022-07-12T06:03:43;8.05;;;3.10;;
62830;SDS011;48889;55.782;37.708;2022-07-12T06:06:09;10.32;;;3.83;;
62830;SDS011;48889;55.782;37.708;2022-07-12T06:08:35;10.18;;;3.67;;
62830;SDS011;48889;55.782;37.708;2022-07-12T06:11:00;11.85;;;3.40;;
62830;SDS011;48889;55.782;37.708;2022-07-12T06:13:26;8.70;;;3.72;;
62830;SDS011;48889;55.782;37.708;2022-07-12T06:15:53;15.77;;;3.75;;
62830;SDS011;48889;55.782;37.708;2022-07-12T06:18:21;8.23;;;3.15;;
62830;SDS011;48889;55.782;37.708;2022-07-12T06:20:47;10.55;;;3.75;;
62830;SDS011;48889;55.782;37.708;2022-07-12T06:23:13;11.85;;;3.40;;
62830;SDS011;48889;55.782;37.708;2022-07-12T06:25:41;11.10;;;3.00;;
62830;SDS011;48889;55.782;37.708;2022-07-12T06:28:07;12.80;;;3.70;;
62830;SDS011;48889;55.782;37.708;2022-07-12T06:30:33;7.95;;;3.72;;
62830;SDS011;48889;55.782;37.708;2022-07-12T06:32:58;11.15;;;3.47;;
62830;SDS011;48889;55.782;37.708;2022-07-12T06:35:24;8.10;;;3.30;;
62830;SDS011;48889;55.782;37.708;2022-07-12T06:37:53;6.57;;;3.53;;
62830;SDS011;48889;55.782;37.708;2022-07-12T06:40:20;18.33;;;3.90;;
62830;SDS011;48889;55.782;37.708;2022-07-12T06:42:48;5.93;;;3.63;;
62830;SDS011;48889;55.782;37.708;2022-07-12T06:45:14;15.20;;;3.67;;
62830;SDS011;48889;55.782;37.708;2022-07-12T06:47:40;12.43;;;3.92;;
62830;SDS011;48889;55.782;37.708;2022-07-12T06:50:05;7.85;;;3.58;;
62830;SDS011;48889;55.782;37.708;2022-07-12T06:52:31;9.02;;;3.63;;
62830;SDS011;48889;55.782;37.708;2022-07-12T06:54:58;9.57;;;3.78;;
62830;SDS011;48889;55.782;37.708;2022-07-12T06:57:24;6.57;;;3.40;;
62830;SDS011;48889;55.782;37.708;2022-07-12T06:59:52;23.50;;;5.68;;
62830;SDS011;48889;55.782;37.708;2022-07-12T07:02:17;13.32;;;6.80;;
62830;SDS011;48889;55.782;37.708;2022-07-12T07:04:43;11.63;;;5.03;;
62830;SDS011;48889;55.782;37.708;2022-07-12T07:07:09;12.63;;;4.95;;
62830;SDS011;48889;55.782;37.708;2022-07-12T07:09:34;13.50;;;5.68;;
62830;SDS011;48889;55.782;37.708;2022-07-12T07:12:00;9.02;;;5.10;;
62830;SDS011;48889;55.782;37.708;2022-07-12T07:14:26;11.48;;;4.35;;
62830;SDS011;48889;55.782;37.708;2022-07-12T07:16:53;8.73;;;4.40;;
62830;SDS011;48889;55.782;37.708;2022-07-12T07:19:18;14.27;;;4.28;;
62830;SDS011;48889;55.782;37.708;2022-07-12T07:21:44;11.00;;;3.83;;
62830;SDS011;48889;55.782;37.708;2022-07-12T07:24:11;14.18;;;5.28;;
62830;SDS011;48889;55.782;37.708;2022-07-12T07:26:37;16.98;;;4.68;;
62830;SDS011;48889;55.782;37.708;2022-07-12T07:29:03;15.32;;;4.50;;
62830;SDS011;48889;55.782;37.708;2022-07-12T07:31:48;13.65;;;5.20;;
62830;SDS011;48889;55.782;37.708;2022-07-12T07:34:13;15.00;;;5.13;;
62830;SDS011;48889;55.782;37.708;2022-07-12T07:36:39;6.40;;;4.30;;
62830;SDS011;48889;55.782;37.708;2022-07-12T07:39:05;13.90;;;4.30;;
62830;SDS011;48889;55.782;37.708;2022-07-12T07:41:30;18.38;;;4.30;;
62830;SDS011;48889;55.782;37.708;2022-07-12T07:43:56;9.93;;;4.50;;
62830;SDS011;48889;55.782;37.708;2022-07-12T07:46:21;13.13;;;4.78;;
62830;SDS011;48889;55.782;37.708;2022-07-12T07:48:47;15.18;;;5.03;;
62830;SDS011;48889;55.782;37.708;2022-07-12T07:51:13;5.65;;;3.90;;
62830;SDS011;48889;55.782;37.708;2022-07-12T07:53:38;7.85;;;4.13;;
62830;SDS011;48889;55.782;37.708;2022-07-12T07:56:04;11.43;;;4.43;;
62830;SDS011;48889;55.782;37.708;2022-07-12T07:58:30;5.20;;;4.18;;
62830;SDS011;48889;55.782;37.708;2022-07-12T08:00:55;12.77;;;4.78;;
62830;SDS011;48889;55.782;37.708;2022-07-12T08:03:21;10.02;;;3.92;;
62830;SDS011;48889;55.782;37.708;2022-07-12T08:05:48;7.57;;;3.95;;
62830;SDS011;48889;55.782;37.708;2022-07-12T08:08:16;7.53;;;3.67;;
62830;SDS011;48889;55.782;37.708;2022-07-12T08:10:43;19.48;;;4.53;;
62830;SDS011;48889;55.782;37.708;2022-07-12T08:13:08;6.38;;;3.40;;
62830;SDS011;48889;55.782;37.708;2022-07-12T08:15:36;6.43;;;3.72;;
62830;SDS011;48889;55.782;37.708;2022-07-12T08:18:01;11.15;;;4.15;;
62830;SDS011;48889;55.782;37.708;2022-07-12T08:20:28;9.27;;;3.67;;
62830;SDS011;48889;55.782;37.708;2022-07-12T08:22:54;6.97;;;3.50;;
62830;SDS011;48889;55.782;37.708;2022-07-12T08:25:20;8.73;;;3.55;;
62830;SDS011;48889;55.782;37.708;2022-07-12T08:27:45;6.15;;;3.33;;
62830;SDS011;48889;55.782;37.708;2022-07-12T08:30:11;11.02;;;4.57;;
62830;SDS011;48889;55.782;37.708;2022-07-12T08:32:37;9.88;;;4.47;;
62830;SDS011;48889;55.782;37.708;2022-07-12T08:35:03;9.40;;;3.90;;
62830;SDS011;48889;55.782;37.708;2022-07-12T08:37:28;6.20;;;3.33;;
62830;SDS011;48889;55.782;37.708;2022-07-12T08:39:56;10.13;;;4.18;;
62830;SDS011;48889;55.782;37.708;2022-07-12T08:42:21;10.32;;;3.17;;
62830;SDS011;48889;55.782;37.708;2022-07-12T08:44:55;7.50;;;3.17;;
62830;SDS011;48889;55.782;37.708;2022-07-12T08:47:22;4.32;;;3.08;;
62830;SDS011;48889;55.782;37.708;2022-07-12T08:52:46;4.55;;;3.30;;
62830;SDS011;48889;55.782;37.708;2022-07-12T08:55:30;7.13;;;3.50;;
62830;SDS011;48889;55.782;37.708;2022-07-12T08:57:57;5.10;;;3.40;;
62830;SDS011;48889;55.782;37.708;2022-07-12T09:00:28;10.30;;;3.03;;
62830;SDS011;48889;55.782;37.708;2022-07-12T09:02:59;7.28;;;3.08;;
62830;SDS011;48889;55.782;37.708;2022-07-12T09:05:26;8.40;;;2.85;;
62830;SDS011;48889;55.782;37.708;2022-07-12T09:10:28;8.32;;;2.65;;
62830;SDS011;48889;55.782;37.708;2022-07-12T09:12:54;7.60;;;2.97;;
62830;SDS011;48889;55.782;37.708;2022-07-12T09:15:21;9.50;;;2.55;;
62830;SDS011;48889;55.782;37.708;2022-07-12T09:20:24;4.80;;;2.42;;
62830;SDS011;48889;55.782;37.708;2022-07-12T09:22:52;3.72;;;2.00;;
62830;SDS011;48889;55.782;37.708;2022-07-12T09:25:19;5.75;;;2.47;;
62830;SDS011;48889;55.782;37.708;2022-07-12T09:27:50;2.90;;;2.25;;
62830;SDS011;48889;55.782;37.708;2022-07-12T09:30:22;3.25;;;2.10;;
62830;SDS011;48889;55.782;37.708;2022-07-12T09:32:56;6.53;;;3.60;;
62830;SDS011;48889;55.782;37.708;2022-07-12T09:35:41;3.97;;;2.33;;
62830;SDS011;48889;55.782;37.708;2022-07-12T09:38:26;4.25;;;2.08;;
62830;SDS011;48889;55.782;37.708;2022-07-12T09:40:53;5.13;;;2.08;;
62830;SDS011;48889;55.782;37.708;2022-07-12T09:43:21;6.53;;;2.15;;
62830;SDS011;48889;55.782;37.708;2022-07-12T09:45:48;7.28;;;2.17;;
62830;SDS011;48889;55.782;37.708;2022-07-12T09:48:14;11.32;;;2.25;;
62830;SDS011;48889;55.782;37.708;2022-07-12T09:50:42;6.18;;;2.78;;
62830;SDS011;48889;55.782;37.708;2022-07-12T09:53:14;2.65;;;1.88;;
62830;SDS011;48889;55.782;37.708;2022-07-12T09:55:45;4.15;;;1.95;;
62830;SDS011;48889;55.782;37.708;2022-07-12T09:58:24;6.45;;;2.03;;
62830;SDS011;48889;55.782;37.708;2022-07-12T10:00:52;6.32;;;1.85;;
62830;SDS011;48889;55.782;37.708;2022-07-12T10:03:22;2.40;;;1.95;;
62830;SDS011;48889;55.782;37.708;2022-07-12T10:05:52;3.15;;;1.90;;
62830;SDS011;48889;55.782;37.708;2022-07-12T10:08:20;3.83;;;1.70;;
62830;SDS011;48889;55.782;37.708;2022-07-12T10:10:47;2.45;;;1.90;;
62830;SDS011;48889;55.782;37.708;2022-07-12T10:13:15;5.07;;;1.95;;
62830;SDS011;48889;55.782;37.708;2022-07-12T10:15:44;5.32;;;1.88;;
62830;SDS011;48889;55.782;37.708;2022-07-12T10:18:20;3.15;;;1.50;;
62830;SDS011;48889;55.782;37.708;2022-07-12T10:20:46;5.75;;;2.35;;
62830;SDS011;48889;55.782;37.708;2022-07-12T10:25:51;8.30;;;1.98;;
62830;SDS011;48889;55.782;37.708;2022-07-12T10:28:17;5.43;;;2.47;;
62830;SDS011;48889;55.782;37.708;2022-07-12T10:30:49;4.57;;;1.85;;
62830;SDS011;48889;55.782;37.708;2022-07-12T10:33:22;7.45;;;2.42;;
62830;SDS011;48889;55.782;37.708;2022-07-12T10:35:58;4.10;;;1.67;;
62830;SDS011;48889;55.782;37.708;2022-07-12T10:38:34;3.35;;;1.90;;
62830;SDS011;48889;55.782;37.708;2022-07-12T10:43:45;8.02;;;1.77;;
62830;SDS011;48889;55.782;37.708;2022-07-12T10:46:29;4.38;;;1.60;;
62830;SDS011;48889;55.782;37.708;2022-07-12T10:54:42;2.65;;;1.50;;
62830;SDS011;48889;55.782;37.708;2022-07-12T11:00:16;7.50;;;1.63;;
62830;SDS011;48889;55.782;37.708;2022-07-12T11:02:42;1.88;;;1.10;;
62830;SDS011;48889;55.782;37.708;2022-07-12T11:05:08;3.25;;;1.13;;
62830;SDS011;48889;55.782;37.708;2022-07-12T11:07:35;3.45;;;1.00;;
62830;SDS011;48889;55.782;37.708;2022-07-12T11:10:01;4.45;;;1.00;;
62830;SDS011;48889;55.782;37.708;2022-07-12T11:12:29;3.72;;;0.90;;
62830;SDS011;48889;55.782;37.708;2022-07-12T11:14:56;2.00;;;0.98;;
62830;SDS011;48889;55.782;37.708;2022-07-12T11:17:30;3.30;;;0.60;;
62830;SDS011;48889;55.782;37.708;2022-07-12T11:20:11;3.05;;;0.73;;
62830;SDS011;48889;55.782;37.708;2022-07-12T11:22:39;1.33;;;0.75;;
62830;SDS011;48889;55.782;37.708;2022-07-12T11:25:09;2.03;;;0.70;;
62830;SDS011;48889;55.782;37.708;2022-07-12T11:27:36;2.08;;;0.70;;
62830;SDS011;48889;55.782;37.708;2022-07-12T11:30:03;0.80;;;0.68;;
62830;SDS011;48889;55.782;37.708;2022-07-12T11:32:37;1.45;;;0.55;;
62830;SDS011;48889;55.782;37.708;2022-07-12T11:35:27;3.97;;;0.90;;
62830;SDS011;48889;55.782;37.708;2022-07-12T11:37:54;5.85;;;0.70;;
62830;SDS011;48889;55.782;37.708;2022-07-12T11:40:22;4.57;;;0.93;;
62830;SDS011;48889;55.782;37.708;2022-07-12T11:42:52;2.03;;;0.70;;
62830;SDS011;48889;55.782;37.708;2022-07-12T11:45:19;2.70;;;1.00;;
62830;SDS011;48889;55.782;37.708;2022-07-12T11:47:44;3.08;;;0.77;;
62830;SDS011;48889;55.782;37.708;2022-07-12T11:50:10;1.55;;;0.73;;
62830;SDS011;48889;55.782;37.708;2022-07-12T11:52:36;2.92;;;0.80;;
62830;SDS011;48889;55.782;37.708;2022-07-12T11:55:01;2.47;;;0.68;;
62830;SDS011;48889;55.782;37.708;2022-07-12T11:57:32;5.85;;;1.10;;
62830;SDS011;48889;55.782;37.708;2022-07-12T12:00:11;1.27;;;0.80;;
62830;SDS011;48889;55.782;37.708;2022-07-12T12:02:42;3.10;;;0.80;;
62830;SDS011;48889;55.782;37.708;2022-07-12T12:05:07;3.20;;;1.15;;
62830;SDS011;48889;55.782;37.708;2022-07-12T12:07:35;2.50;;;0.80;;
62830;SDS011;48889;55.782;37.708;2022-07-12T12:10:04;2.13;;;0.90;;
62830;SDS011;48889;55.782;37.708;2022-07-12T12:12:41;2.03;;;0.65;;
62830;SDS011;48889;55.782;37.708;2022-07-12T12:15:17;4.95;;;0.75;;
62830;SDS011;48889;55.782;37.708;2022-07-12T12:20:16;1.52;;;0.80;;
62830;SDS011;48889;55.782;37.708;2022-07-12T12:22:47;5.85;;;1.10;;
62830;SDS011;48889;55.782;37.708;2022-07-12T12:25:15;4.68;;;1.30;;
62830;SDS011;48889;55.782;37.708;2022-07-12T12:27:45;4.18;;;0.85;;
62830;SDS011;48889;55.782;37.708;2022-07-12T12:30:13;3.70;;;1.00;;
62830;SDS011;48889;55.782;37.708;2022-07-12T12:35:20;1.60;;;0.80;;
62830;SDS011;48889;55.782;37.708;2022-07-12T12:37:56;2.80;;;1.10;;
62830;SDS011;48889;55.782;37.708;2022-07-12T12:40:24;6.47;;;1.17;;
62830;SDS011;48889;55.782;37.708;2022-07-12T12:42:51;3.83;;;1.00;;
62830;SDS011;48889;55.782;37.708;2022-07-12T12:45:18;3.45;;;1.00;;
62830;SDS011;48889;55.782;37.708;2022-07-12T12:51:09;7.28;;;1.20;;
62830;SDS011;48889;55.782;37.708;2022-07-12T12:53:54;3.95;;;1.00;;
62830;SDS011;48889;55.782;37.708;2022-07-12T12:56:50;6.10;;;1.10;;
62830;SDS011;48889;55.782;37.708;2022-07-12T12:59:16;5.47;;;1.17;;
62830;SDS011;48889;55.782;37.708;2022-07-12T13:01:42;2.88;;;1.20;;
62830;SDS011;48889;55.782;37.708;2022-07-12T13:04:10;9.45;;;1.52;;
62830;SDS011;48889;55.782;37.708;2022-07-12T13:06:36;15.82;;;1.67;;
62830;SDS011;48889;55.782;37.708;2022-07-12T13:09:02;17.25;;;1.98;;
62830;SDS011;48889;55.782;37.708;2022-07-12T13:11:28;4.40;;;1.40;;
62830;SDS011;48889;55.782;37.708;2022-07-12T13:13:53;5.82;;;1.30;;
62830;SDS011;48889;55.782;37.708;2022-07-12T13:16:19;5.55;;;1.17;;
62830;SDS011;48889;55.782;37.708;2022-07-12T13:18:45;11.45;;;1.63;;
62830;SDS011;48889;55.782;37.708;2022-07-12T13:21:11;4.15;;;1.30;;
62830;SDS011;48889;55.782;37.708;2022-07-12T13:23:36;10.45;;;1.45;;
62830;SDS011;48889;55.782;37.708;2022-07-12T13:26:02;7.55;;;1.90;;
62830;SDS011;48889;55.782;37.708;2022-07-12T13:28:28;9.82;;;1.45;;
62830;SDS011;48889;55.782;37.708;2022-07-12T13:30:54;6.38;;;1.42;;
62830;SDS011;48889;55.782;37.708;2022-07-12T13:33:20;2.60;;;1.20;;
62830;SDS011;48889;55.782;37.708;2022-07-12T13:35:46;9.02;;;1.55;;
62830;SDS011;48889;55.782;37.708;2022-07-12T13:38:12;5.20;;;2.00;;
62830;SDS011;48889;55.782;37.708;2022-07-12T13:40:37;3.60;;;1.13;;
62830;SDS011;48889;55.782;37.708;2022-07-12T13:43:03;7.10;;;1.60;;
62830;SDS011;48889;55.782;37.708;2022-07-12T13:45:29;6.70;;;1.20;;
62830;SDS011;48889;55.782;37.708;2022-07-12T13:47:54;6.43;;;1.13;;
62830;SDS011;48889;55.782;37.708;2022-07-12T13:50:23;4.10;;;1.20;;
62830;SDS011;48889;55.782;37.708;2022-07-12T13:52:48;4.53;;;1.10;;
62830;SDS011;48889;55.782;37.708;2022-07-12T13:55:15;4.05;;;1.20;;
62830;SDS011;48889;55.782;37.708;2022-07-12T13:57:43;2.90;;;1.00;;
62830;SDS011;48889;55.782;37.708;2022-07-12T14:00:09;5.97;;;1.40;;
62830;SDS011;48889;55.782;37.708;2022-07-12T14:02:38;2.15;;;1.02;;
62830;SDS011;48889;55.782;37.708;2022-07-12T14:05:06;2.15;;;1.30;;
62830;SDS011;48889;55.782;37.708;2022-07-12T14:07:36;3.25;;;1.15;;
62830;SDS011;48889;55.782;37.708;2022-07-12T14:10:04;4.93;;;1.20;;
62830;SDS011;48889;55.782;37.708;2022-07-12T14:12:30;2.95;;;1.30;;
62830;SDS011;48889;55.782;37.708;2022-07-12T14:14:56;2.17;;;1.02;;
62830;SDS011;48889;55.782;37.708;2022-07-12T14:17:40;10.15;;;1.00;;
62830;SDS011;48889;55.782;37.708;2022-07-12T14:20:10;2.78;;;1.15;;
62830;SDS011;48889;55.782;37.708;2022-07-12T14:22:43;1.48;;;0.82;;
62830;SDS011;48889;55.782;37.708;2022-07-12T14:25:09;6.07;;;1.10;;
62830;SDS011;48889;55.782;37.708;2022-07-12T14:27:36;7.65;;;1.20;;
62830;SDS011;48889;55.782;37.708;2022-07-12T14:30:05;2.95;;;1.10;;
62830;SDS011;48889;55.782;37.708;2022-07-12T14:32:32;3.05;;;1.00;;
62830;SDS011;48889;55.782;37.708;2022-07-12T14:34:58;4.43;;;0.85;;
62830;SDS011;48889;55.782;37.708;2022-07-12T14:37:23;7.47;;;0.80;;
62830;SDS011;48889;55.782;37.708;2022-07-12T14:39:49;2.67;;;1.02;;
62830;SDS011;48889;55.782;37.708;2022-07-12T14:42:16;2.58;;;0.85;;
62830;SDS011;48889;55.782;37.708;2022-07-12T14:44:42;2.63;;;1.10;;
62830;SDS011;48889;55.782;37.708;2022-07-12T14:47:08;3.40;;;1.02;;
62830;SDS011;48889;55.782;37.708;2022-07-12T14:49:33;3.33;;;0.90;;
62830;SDS011;48889;55.782;37.708;2022-07-12T14:52:00;3.08;;;1.20;;
62830;SDS011;48889;55.782;37.708;2022-07-12T14:54:26;6.85;;;1.00;;
62830;SDS011;48889;55.782;37.708;2022-07-12T14:56:51;3.42;;;0.85;;
62830;SDS011;48889;55.782;37.708;2022-07-12T14:59:17;1.95;;;1.00;;
62830;SDS011;48889;55.782;37.708;2022-07-12T15:01:43;3.45;;;1.02;;
62830;SDS011;48889;55.782;37.708;2022-07-12T15:04:08;6.30;;;1.13;;